Time;durP1;ratioP1;P1;durP2;ratioP2;P2;SDS_P1;SDS_P2;PMS_P1;PMS_P2;Temp;Humidity;BMP_temperature;BMP_pressure;BME280_temperature;BME280_humidity;BME280_pressure;Samples;Min_cycle;Max_cycle;Signal;HPM_P1;HPM_P2
2023/07/24 03:01:58;;;;;;;;;;;16.70;99.90;;;;;;5317360;23;19920;-78
2023/07/24 03:04:24;;;;;;;;;;;16.70;99.90;;;;;;5016303;28;19917;-77
2023/07/24 03:06:49;;;;;;;;;;;16.70;99.90;;;;;;5032494;28;19947;-77
2023/07/24 03:09:15;;;;;;;;;;;16.70;99.90;;;;;;5033217;28;20283;-78
2023/07/24 03:11:40;;;;;;;;;;;16.80;99.90;;;;;;5032223;28;19916;-76
2023/07/24 03:14:06;;;;;;;;;;;16.80;99.90;;;;;;5032304;28;20008;-77
2023/07/24 03:16:31;;;;;;;;;;;16.80;99.90;;;;;;5032584;28;20003;-77
2023/07/24 03:18:57;;;;;;;;;;;16.80;99.90;;;;;;5032447;28;19975;-77
2023/07/24 03:21:23;;;;;;;;;;;16.80;99.90;;;;;;5032879;28;19924;-78
2023/07/24 03:23:48;;;;;;;;;;;16.80;99.90;;;;;;5033015;28;19917;-77
2023/07/24 03:26:14;;;;;;;;;;;16.80;99.90;;;;;;5032451;28;19928;-77
2023/07/24 03:28:39;;;;;;;;;;;16.80;99.90;;;;;;5032149;28;19917;-76
2023/07/24 03:31:05;;;;;;;;;;;16.80;99.90;;;;;;5015855;28;19917;-77
2023/07/24 03:33:30;;;;;;;;;;;16.80;99.90;;;;;;5012609;28;19917;-77
2023/07/24 03:35:56;;;;;;;;;;;16.80;99.90;;;;;;5012726;28;19918;-77
2023/07/24 03:38:21;;;;;;;;;;;16.80;99.90;;;;;;5012706;28;19976;-77
2023/07/24 03:40:48;;;;;;;;;;;16.80;99.90;;;;;;5012267;28;19917;-77
2023/07/24 03:43:13;;;;;;;;;;;16.80;99.90;;;;;;5013869;28;19924;-77
2023/07/24 03:45:39;;;;;;;;;;;16.80;99.90;;;;;;5016299;28;20335;-77
2023/07/24 03:48:05;;;;;;;;;;;16.80;99.90;;;;;;5016663;28;19921;-77
2023/07/24 03:50:30;;;;;;;;;;;16.80;99.90;;;;;;5016046;28;19917;-77
2023/07/24 03:52:56;;;;;;;;;;;16.80;99.90;;;;;;5016422;28;19917;-77
2023/07/24 03:55:21;;;;;;;;;;;16.90;99.90;;;;;;5017520;28;20008;-77
2023/07/24 03:57:47;;;;;;;;;;;16.90;99.90;;;;;;4999895;28;19967;-78
2023/07/24 04:00:13;;;;;;;;;;;16.90;99.90;;;;;;5015621;28;19929;-76
2023/07/24 04:02:39;;;;;;;;;;;16.90;99.90;;;;;;4999659;28;19917;-77
2023/07/24 04:05:05;;;;;;;;;;;16.90;99.90;;;;;;4999930;28;19921;-77
2023/07/24 04:07:30;;;;;;;;;;;16.90;99.90;;;;;;5015828;28;19917;-77
2023/07/24 04:09:56;;;;;;;;;;;16.80;99.90;;;;;;5015632;28;20004;-75
2023/07/24 04:12:22;;;;;;;;;;;16.90;99.90;;;;;;5015392;28;19937;-77
2023/07/24 04:14:48;;;;;;;;;;;16.90;99.90;;;;;;5015531;28;19924;-77
2023/07/24 04:17:14;;;;;;;;;;;16.90;99.90;;;;;;5017012;28;19917;-77
2023/07/24 04:19:40;;;;;;;;;;;16.80;99.90;;;;;;5017713;28;20285;-77
2023/07/24 04:22:05;;;;;;;;;;;16.80;99.90;;;;;;5017013;28;19924;-78
2023/07/24 04:24:31;;;;;;;;;;;16.80;99.90;;;;;;5002750;28;20293;-78
2023/07/24 04:26:56;;;;;;;;;;;16.80;99.90;;;;;;5006305;28;20343;-76
2023/07/24 04:29:24;;;;;;;;;;;16.80;99.90;;;;;;5014765;28;19917;-78
2023/07/24 04:31:50;;;;;;;;;;;16.80;99.90;;;;;;5012285;28;19917;-78
2023/07/24 04:34:16;;;;;;;;;;;16.80;99.90;;;;;;5008891;28;19918;-77
2023/07/24 04:36:41;;;;;;;;;;;16.80;99.90;;;;;;5008577;28;19917;-78
2023/07/24 04:39:07;;;;;;;;;;;16.80;99.90;;;;;;5013249;28;19922;-77
2023/07/24 04:41:32;;;;;;;;;;;16.80;99.90;;;;;;5012028;28;19918;-79
2023/07/24 04:43:58;;;;;;;;;;;16.70;99.90;;;;;;5016440;28;19917;-77
2023/07/24 04:46:23;;;;;;;;;;;16.70;99.90;;;;;;5015565;28;19918;-77
2023/07/24 04:48:49;;;;;;;;;;;16.70;99.90;;;;;;5015724;28;19983;-77
2023/07/24 04:51:14;;;;;;;;;;;16.70;99.90;;;;;;5016445;28;20290;-76
2023/07/24 04:53:40;;;;;;;;;;;16.80;99.90;;;;;;5015334;28;20287;-77
2023/07/24 04:56:05;;;;;;;;;;;16.80;99.90;;;;;;5015060;28;20440;-77
2023/07/24 04:58:31;;;;;;;;;;;16.80;99.90;;;;;;5015102;28;20012;-76
2023/07/24 05:00:56;;;;;;;;;;;16.80;99.90;;;;;;5014670;28;19964;-77
2023/07/24 05:03:22;;;;;;;;;;;16.80;99.90;;;;;;5014891;28;19964;-78
2023/07/24 05:05:48;;;;;;;;;;;16.80;99.90;;;;;;5015532;28;19957;-79
2023/07/24 05:08:13;;;;;;;;;;;16.80;99.90;;;;;;5014673;28;19929;-77
2023/07/24 05:10:39;;;;;;;;;;;16.80;99.90;;;;;;5014978;28;19917;-78
2023/07/24 05:13:04;;;;;;;;;;;16.80;99.90;;;;;;5015868;28;19925;-77
2023/07/24 05:15:30;;;;;;;;;;;16.80;99.90;;;;;;5015266;28;19918;-77
2023/07/24 05:17:55;;;;;;;;;;;16.80;99.90;;;;;;5014506;28;19925;-75
2023/07/24 05:20:21;;;;;;;;;;;16.80;99.90;;;;;;5014496;28;19960;-77
2023/07/24 05:22:46;;;;;;;;;;;16.80;99.90;;;;;;5014547;28;19917;-78
2023/07/24 05:25:12;;;;;;;;;;;16.80;99.90;;;;;;5014890;28;20304;-78
2023/07/24 05:27:37;;;;;;;;;;;16.80;99.90;;;;;;5014531;28;19917;-78
2023/07/24 05:30:03;;;;;;;;;;;16.80;99.90;;;;;;5014210;28;19983;-78
2023/07/24 05:32:29;;;;;;;;;;;16.80;99.90;;;;;;5008236;28;19917;-78
2023/07/24 05:34:54;;;;;;;;;;;16.90;99.90;;;;;;4999946;28;20300;-77
2023/07/24 05:37:20;;;;;;;;;;;16.80;99.90;;;;;;5011322;28;19918;-78
2023/07/24 05:39:45;;;;;;;;;;;16.90;99.90;;;;;;5014329;28;19922;-75
2023/07/24 05:42:11;;;;;;;;;;;16.90;99.90;;;;;;5013943;28;19917;-76
2023/07/24 05:44:37;;;;;;;;;;;16.90;99.90;;;;;;5014371;28;19924;-77
2023/07/24 05:47:02;;;;;;;;;;;16.90;99.90;;;;;;4998465;28;20324;-76
2023/07/24 05:49:28;;;;;;;;;;;16.90;99.90;;;;;;5008045;28;19924;-78
2023/07/24 05:51:54;;;;;;;;;;;16.90;99.90;;;;;;5013310;28;19960;-77
2023/07/24 05:54:19;;;;;;;;;;;16.90;99.90;;;;;;5013602;28;19917;-76
2023/07/24 05:56:45;;;;;;;;;;;16.90;99.90;;;;;;5015041;28;19975;-77
2023/07/24 05:59:10;;;;;;;;;;;17.00;99.90;;;;;;5012776;28;19922;-76
2023/07/24 06:01:36;;;;;;;;;;;17.00;99.90;;;;;;5011207;28;19921;-76
2023/07/24 06:04:01;;;;;;;;;;;17.00;99.90;;;;;;5004492;28;19964;-77
2023/07/24 06:06:28;;;;;;;;;;;17.10;99.90;;;;;;5011830;28;20289;-77
2023/07/24 06:08:53;;;;;;;;;;;17.10;99.90;;;;;;5014619;28;19924;-77
2023/07/24 06:11:19;;;;;;;;;;;17.10;99.90;;;;;;5014762;28;20292;-77
2023/07/24 06:13:44;;;;;;;;;;;17.20;99.90;;;;;;5013641;28;20373;-78
2023/07/24 06:16:12;;;;;;;;;;;17.20;99.90;;;;;;5013728;28;19918;-75
2023/07/24 06:18:38;;;;;;;;;;;17.20;99.90;;;;;;5013539;28;19921;-77
2023/07/24 06:21:03;;;;;;;;;;;17.20;99.90;;;;;;5014898;28;20288;-77
2023/07/24 06:23:29;;;;;;;;;;;17.30;99.90;;;;;;4997617;28;20311;-75
2023/07/24 06:25:55;;;;;;;;;;;17.30;99.90;;;;;;5014632;28;19921;-77
2023/07/24 06:28:20;;;;;;;;;;;17.40;99.90;;;;;;5013452;28;19918;-75
2023/07/24 06:30:46;;;;;;;;;;;17.40;99.90;;;;;;5013220;28;20015;-75
2023/07/24 06:33:12;;;;;;;;;;;17.40;99.90;;;;;;5013257;28;19917;-76
2023/07/24 06:35:37;;;;;;;;;;;17.40;99.90;;;;;;5013159;28;20312;-76
2023/07/24 06:38:03;;;;;;;;;;;17.40;99.90;;;;;;5014324;28;19921;-76
2023/07/24 06:40:28;;;;;;;;;;;17.50;99.90;;;;;;5015069;28;20353;-76
2023/07/24 06:42:54;;;;;;;;;;;17.50;99.90;;;;;;5013277;28;19933;-77
2023/07/24 06:45:19;;;;;;;;;;;17.50;99.90;;;;;;5012906;28;19917;-75
2023/07/24 06:47:45;;;;;;;;;;;17.50;99.90;;;;;;4996626;28;19921;-76
2023/07/24 06:50:10;;;;;;;;;;;17.50;99.90;;;;;;5012911;28;19924;-77
2023/07/24 06:52:36;;;;;;;;;;;17.60;99.90;;;;;;5012828;28;20300;-76
2023/07/24 06:55:02;;;;;;;;;;;17.60;99.90;;;;;;5012904;28;19917;-76
2023/07/24 06:57:27;;;;;;;;;;;17.70;99.90;;;;;;5013611;28;19961;-76
2023/07/24 06:59:53;;;;;;;;;;;17.70;99.90;;;;;;5013581;28;19984;-76
2023/07/24 07:02:18;;;;;;;;;;;17.80;99.90;;;;;;5013868;28;19921;-76
2023/07/24 07:04:44;;;;;;;;;;;17.80;99.90;;;;;;5013419;28;19924;-77
2023/07/24 07:07:10;;;;;;;;;;;17.80;99.90;;;;;;5013926;28;19918;-76
2023/07/24 07:09:35;;;;;;;;;;;17.80;99.90;;;;;;5012677;28;20000;-77
2023/07/24 07:12:01;;;;;;;;;;;17.90;99.90;;;;;;5012909;28;20356;-76
2023/07/24 07:14:26;;;;;;;;;;;17.90;99.90;;;;;;5013855;28;20376;-76
2023/07/24 07:16:52;;;;;;;;;;;17.90;99.90;;;;;;5012639;28;20020;-76
2023/07/24 07:19:17;;;;;;;;;;;17.90;99.90;;;;;;5012259;28;19928;-76
2023/07/24 07:21:43;;;;;;;;;;;17.90;99.90;;;;;;5012486;28;19917;-77
2023/07/24 07:24:08;;;;;;;;;;;17.90;99.90;;;;;;5012587;28;19971;-75
2023/07/24 07:26:34;;;;;;;;;;;17.90;99.90;;;;;;5012536;28;19980;-75
2023/07/24 07:28:59;;;;;;;;;;;17.90;99.90;;;;;;5014029;28;19979;-76
2023/07/24 07:31:25;;;;;;;;;;;17.90;99.90;;;;;;5014026;28;19917;-76
2023/07/24 07:33:51;;;;;;;;;;;17.90;99.90;;;;;;5013675;28;19918;-76
2023/07/24 07:36:17;;;;;;;;;;;17.90;99.90;;;;;;5013585;28;19918;-76
2023/07/24 07:38:43;;;;;;;;;;;17.90;99.90;;;;;;5013860;28;19922;-77
2023/07/24 07:41:08;;;;;;;;;;;17.90;99.90;;;;;;5012294;28;20270;-76
2023/07/24 07:43:36;;;;;;;;;;;17.90;99.90;;;;;;5012678;28;20031;-76
2023/07/24 07:46:02;;;;;;;;;;;17.90;99.90;;;;;;4996046;28;19917;-76
2023/07/24 07:48:27;;;;;;;;;;;17.90;99.90;;;;;;5013856;28;20036;-77
2023/07/24 07:50:53;;;;;;;;;;;17.90;99.90;;;;;;5012306;28;19956;-76
2023/07/24 07:53:18;;;;;;;;;;;17.90;99.90;;;;;;5013520;28;19917;-76
2023/07/24 07:55:44;;;;;;;;;;;18.00;99.90;;;;;;5013492;28;19917;-76
2023/07/24 07:58:09;;;;;;;;;;;18.00;99.90;;;;;;5012655;28;19928;-76
2023/07/24 08:00:35;;;;;;;;;;;18.00;99.90;;;;;;5012076;28;19939;-75
2023/07/24 08:03:00;;;;;;;;;;;18.10;99.90;;;;;;5012467;28;19940;-76
2023/07/24 08:05:26;;;;;;;;;;;18.10;99.90;;;;;;5011688;28;20423;-75
2023/07/24 08:07:51;;;;;;;;;;;18.20;99.90;;;;;;5011779;28;19971;-75
2023/07/24 08:10:17;;;;;;;;;;;18.10;99.90;;;;;;5010524;28;20380;-76
2023/07/24 08:12:43;;;;;;;;;;;18.20;99.90;;;;;;5010484;28;19917;-76
2023/07/24 08:15:09;;;;;;;;;;;18.20;99.90;;;;;;5010575;28;19933;-76
2023/07/24 08:17:34;;;;;;;;;;;18.20;99.90;;;;;;5011809;28;19927;-75
2023/07/24 08:20:00;;;;;;;;;;;18.30;99.90;;;;;;5011692;28;19921;-76
2023/07/24 08:22:25;;;;;;;;;;;18.30;99.90;;;;;;4996103;28;20000;-76
2023/07/24 08:24:51;;;;;;;;;;;18.30;99.90;;;;;;5011885;28;19961;-75
2023/07/24 08:27:17;;;;;;;;;;;18.40;99.90;;;;;;5013598;28;19917;-74
2023/07/24 08:29:42;;;;;;;;;;;18.50;99.90;;;;;;5011986;28;19968;-76
2023/07/24 08:32:08;;;;;;;;;;;18.50;99.90;;;;;;5015075;28;20371;-74
2023/07/24 08:34:33;;;;;;;;;;;18.60;99.90;;;;;;5015467;28;20335;-75
2023/07/24 08:36:59;;;;;;;;;;;18.70;99.90;;;;;;5016701;28;20336;-76
2023/07/24 08:39:24;;;;;;;;;;;18.80;99.90;;;;;;5017053;28;20288;-76
2023/07/24 08:41:50;;;;;;;;;;;18.90;99.90;;;;;;5016508;28;19943;-76
2023/07/24 08:44:16;;;;;;;;;;;19.10;99.90;;;;;;5016514;28;20356;-76
2023/07/24 08:46:45;;;;;;;;;;;19.20;99.90;;;;;;5016700;28;20005;-76
2023/07/24 08:49:11;;;;;;;;;;;19.20;99.90;;;;;;5015144;28;19917;-76
2023/07/24 08:51:37;;;;;;;;;;;19.20;99.90;;;;;;5015512;28;19917;-75
2023/07/24 08:54:04;;;;;;;;;;;19.20;99.90;;;;;;5015936;28;20316;-75
2023/07/24 08:56:30;;;;;;;;;;;19.30;99.90;;;;;;4999466;28;20004;-75
2023/07/24 08:58:55;;;;;;;;;;;19.30;99.90;;;;;;5015437;28;19987;-76
2023/07/24 09:01:21;;;;;;;;;;;19.40;99.90;;;;;;5014988;28;19944;-77
2023/07/24 09:03:46;;;;;;;;;;;19.40;99.90;;;;;;5015582;28;20331;-75
2023/07/24 09:06:12;;;;;;;;;;;19.50;99.90;;;;;;5016307;28;20438;-75
2023/07/24 09:08:39;;;;;;;;;;;19.60;99.90;;;;;;4998662;28;20296;-75
2023/07/24 09:11:05;;;;;;;;;;;19.70;99.90;;;;;;5015101;28;20285;-75
2023/07/24 09:13:31;;;;;;;;;;;19.70;99.90;;;;;;5015050;28;19918;-76
2023/07/24 09:15:57;;;;;;;;;;;19.60;99.90;;;;;;5016109;28;19917;-76
2023/07/24 09:18:22;;;;;;;;;;;19.70;99.90;;;;;;5014726;28;19921;-76
2023/07/24 09:20:48;;;;;;;;;;;19.80;99.90;;;;;;5016179;28;20292;-76
2023/07/24 09:23:15;;;;;;;;;;;19.80;99.90;;;;;;5014944;28;19971;-76
2023/07/24 09:25:42;;;;;;;;;;;20.00;99.90;;;;;;5015824;28;19964;-77
2023/07/24 09:28:14;;;;;;;;;;;20.10;99.90;;;;;;5015713;28;19918;-76
2023/07/24 09:30:40;;;;;;;;;;;20.20;99.90;;;;;;5014385;28;19917;-76
2023/07/24 09:33:07;;;;;;;;;;;20.20;99.90;;;;;;4998540;28;19968;-76
2023/07/24 09:35:32;;;;;;;;;;;20.10;99.90;;;;;;5014442;28;19917;-77
2023/07/24 09:38:08;;;;;;;;;;;20.10;99.90;;;;;;5014592;28;19921;-75
2023/07/24 09:40:38;;;;;;;;;;;20.00;99.90;;;;;;5014263;28;19921;-77
2023/07/24 09:43:13;;;;;;;;;;;20.10;99.90;;;;;;5015304;28;19918;-77
2023/07/24 09:45:38;;;;;;;;;;;20.30;99.90;;;;;;5014298;28;19917;-75
2023/07/24 09:48:06;;;;;;;;;;;20.50;99.90;;;;;;5014122;28;19918;-77
2023/07/24 09:50:31;;;;;;;;;;;20.80;99.90;;;;;;5014038;28;19964;-76
2023/07/24 09:52:57;;;;;;;;;;;20.80;99.90;;;;;;5015851;28;19957;-75
2023/07/24 09:55:29;;;;;;;;;;;20.90;99.90;;;;;;5015366;28;19924;-76
2023/07/24 09:57:54;;;;;;;;;;;20.90;99.90;;;;;;5014223;28;19924;-76
2023/07/24 10:00:20;;;;;;;;;;;20.70;99.90;;;;;;5014259;28;20296;-76
2023/07/24 10:02:47;;;;;;;;;;;20.50;99.90;;;;;;5014364;28;20345;-76
2023/07/24 10:05:12;;;;;;;;;;;20.50;99.90;;;;;;5014117;28;19917;-76
2023/07/24 10:07:38;;;;;;;;;;;20.50;99.90;;;;;;5015131;28;19917;-75
2023/07/24 10:10:04;;;;;;;;;;;20.60;99.90;;;;;;5013631;28;19917;-77
2023/07/24 10:12:31;;;;;;;;;;;20.70;99.90;;;;;;5014809;28;19924;-77
2023/07/24 10:14:56;;;;;;;;;;;20.80;99.90;;;;;;5002730;28;19917;-74
2023/07/24 10:17:35;;;;;;;;;;;20.70;99.90;;;;;;4995314;28;19944;-76
2023/07/24 10:20:03;;;;;;;;;;;20.40;99.90;;;;;;4993930;28;19922;-76
2023/07/24 10:22:28;;;;;;;;;;;20.40;99.90;;;;;;4993857;28;19917;-76
2023/07/24 10:24:55;;;;;;;;;;;20.60;99.90;;;;;;4977696;28;19918;-76
2023/07/24 10:27:23;;;;;;;;;;;20.60;99.90;;;;;;5012928;28;19924;-75
2023/07/24 10:30:02;;;;;;;;;;;20.70;99.90;;;;;;5014718;28;19917;-77
2023/07/24 10:32:28;;;;;;;;;;;20.80;99.90;;;;;;5000782;28;19918;-76
2023/07/24 10:34:58;;;;;;;;;;;20.70;99.90;;;;;;4994748;28;19983;-76
2023/07/24 10:37:34;;;;;;;;;;;20.70;99.90;;;;;;5012864;28;19976;-76
2023/07/24 10:39:59;;;;;;;;;;;20.60;99.90;;;;;;5012985;28;19983;-76
2023/07/24 10:42:25;;;;;;;;;;;20.70;99.90;;;;;;5013052;28;19921;-76
2023/07/24 10:45:01;;;;;;;;;;;20.70;99.90;;;;;;5013033;28;20012;-75
2023/07/24 10:47:30;;;;;;;;;;;20.80;99.90;;;;;;4995674;28;20432;-76
2023/07/24 10:49:57;;;;;;;;;;;20.90;99.90;;;;;;4993733;28;19999;-75
2023/07/24 10:52:35;;;;;;;;;;;21.10;99.90;;;;;;4993396;28;20413;-76
2023/07/24 10:55:01;;;;;;;;;;;21.10;99.90;;;;;;4994252;28;19918;-77
2023/07/24 10:57:27;;;;;;;;;;;21.10;99.90;;;;;;5012071;28;19924;-76
2023/07/24 10:59:53;;;;;;;;;;;21.10;99.90;;;;;;5014107;28;20284;-75
2023/07/24 11:02:18;;;;;;;;;;;21.10;99.90;;;;;;5012693;28;19917;-77
2023/07/24 11:04:44;;;;;;;;;;;21.10;99.90;;;;;;5012877;28;19922;-76
2023/07/24 11:07:10;;;;;;;;;;;21.00;99.90;;;;;;5014027;28;19917;-76
2023/07/24 11:09:37;;;;;;;;;;;21.00;99.90;;;;;;5013404;28;19923;-75
2023/07/24 11:12:15;;;;;;;;;;;21.00;99.90;;;;;;4994812;28;19976;-76
2023/07/24 11:14:50;;;;;;;;;;;21.00;99.90;;;;;;4991600;28;20519;-77
2023/07/24 11:17:16;;;;;;;;;;;21.10;99.90;;;;;;4991470;28;19918;-75
2023/07/24 11:19:42;;;;;;;;;;;21.30;99.90;;;;;;4991710;28;19925;-76
2023/07/24 11:22:07;;;;;;;;;;;21.30;99.90;;;;;;4992325;28;19917;-75
2023/07/24 11:24:33;;;;;;;;;;;21.50;99.90;;;;;;4992397;28;19924;-75
2023/07/24 11:26:58;;;;;;;;;;;21.40;99.90;;;;;;4976448;28;19918;-75
2023/07/24 11:29:24;;;;;;;;;;;21.40;99.90;;;;;;4994540;28;19924;-76
2023/07/24 11:31:56;;;;;;;;;;;21.50;99.90;;;;;;4994424;28;19922;-76
2023/07/24 11:34:22;;;;;;;;;;;21.50;99.90;;;;;;4994167;28;19961;-75
2023/07/24 11:36:48;;;;;;;;;;;21.40;99.90;;;;;;4993235;28;19984;-77
2023/07/24 11:39:21;;;;;;;;;;;21.40;99.90;;;;;;4992752;28;19921;-75
2023/07/24 11:41:47;;;;;;;;;;;21.50;99.90;;;;;;4992860;28;19918;-77
2023/07/24 11:44:16;;;;;;;;;;;21.60;99.90;;;;;;4993126;28;19979;-76
2023/07/24 11:46:42;;;;;;;;;;;21.50;99.90;;;;;;4992789;28;19940;-75
2023/07/24 11:49:07;;;;;;;;;;;21.50;99.90;;;;;;4992748;28;19917;-75
2023/07/24 11:51:36;;;;;;;;;;;21.50;99.90;;;;;;4992641;28;19925;-76
2023/07/24 11:54:06;;;;;;;;;;;21.30;99.90;;;;;;4993950;28;20429;-75
2023/07/24 11:56:32;;;;;;;;;;;21.10;99.90;;;;;;4992735;28;20004;-75
2023/07/24 11:58:57;;;;;;;;;;;20.90;99.90;;;;;;4992807;28;20326;-75
2023/07/24 12:01:23;;;;;;;;;;;20.50;99.90;;;;;;4992460;28;19925;-76
2023/07/24 12:03:49;;;;;;;;;;;20.40;99.90;;;;;;4992758;28;19954;-76
2023/07/24 12:06:16;;;;;;;;;;;20.20;99.90;;;;;;4994632;28;19921;-76
2023/07/24 12:08:42;;;;;;;;;;;20.10;99.90;;;;;;4996683;28;20360;-74
2023/07/24 12:11:15;;;;;;;;;;;20.20;99.90;;;;;;4997488;28;19976;-76
2023/07/24 12:13:41;;;;;;;;;;;20.40;99.90;;;;;;4996683;28;19918;-76
2023/07/24 12:16:06;;;;;;;;;;;20.60;99.90;;;;;;4996876;28;20357;-76
2023/07/24 12:18:32;;;;;;;;;;;20.80;99.90;;;;;;4996279;28;20365;-76
2023/07/24 12:20:57;;;;;;;;;;;21.00;99.90;;;;;;4996191;28;20369;-75
2023/07/24 12:23:23;;;;;;;;;;;21.00;99.90;;;;;;4996316;28;19917;-75
2023/07/24 12:25:49;;;;;;;;;;;21.10;99.90;;;;;;4997554;28;20365;-73
2023/07/24 12:28:14;;;;;;;;;;;21.00;99.90;;;;;;4996014;28;19924;-76
2023/07/24 12:30:40;;;;;;;;;;;20.90;99.90;;;;;;4995823;28;20278;-76
2023/07/24 12:33:05;;;;;;;;;;;20.80;99.90;;;;;;4997195;28;20356;-76
2023/07/24 12:35:31;;;;;;;;;;;20.70;99.90;;;;;;4997140;28;20448;-74
2023/07/24 12:37:57;;;;;;;;;;;20.60;99.90;;;;;;4995767;28;20009;-76
2023/07/24 12:40:22;;;;;;;;;;;20.40;99.90;;;;;;4995734;28;19925;-75
2023/07/24 12:42:48;;;;;;;;;;;20.10;99.90;;;;;;4996960;28;19992;-75
2023/07/24 12:45:14;;;;;;;;;;;19.90;99.90;;;;;;4995563;28;19918;-75
2023/07/24 12:47:39;;;;;;;;;;;19.80;99.90;;;;;;4995551;28;19918;-76
2023/07/24 12:50:05;;;;;;;;;;;19.80;99.90;;;;;;4979655;28;19922;-77
2023/07/24 12:52:31;;;;;;;;;;;19.80;99.90;;;;;;4995458;28;19917;-77
2023/07/24 12:54:56;;;;;;;;;;;19.80;99.90;;;;;;4997025;28;19925;-76
2023/07/24 12:57:22;;;;;;;;;;;19.80;99.90;;;;;;4995467;28;19918;-77
2023/07/24 12:59:47;;;;;;;;;;;19.80;99.90;;;;;;4995294;28;19925;-76
2023/07/24 13:02:13;;;;;;;;;;;19.70;99.90;;;;;;4995156;28;19921;-77
2023/07/24 13:04:38;;;;;;;;;;;19.70;99.90;;;;;;4996844;28;19922;-76
2023/07/24 13:07:04;;;;;;;;;;;19.40;99.90;;;;;;4997056;28;19921;-77
2023/07/24 13:09:30;;;;;;;;;;;19.40;99.90;;;;;;4979093;28;19968;-77
2023/07/24 13:11:55;;;;;;;;;;;19.40;99.90;;;;;;4995148;28;19918;-77
2023/07/24 13:14:21;;;;;;;;;;;19.20;99.90;;;;;;4995095;28;19975;-76
2023/07/24 13:16:47;;;;;;;;;;;19.20;99.90;;;;;;4994561;28;19917;-76
2023/07/24 13:19:12;;;;;;;;;;;19.20;99.90;;;;;;4994925;28;20262;-77
2023/07/24 13:21:39;;;;;;;;;;;19.10;99.90;;;;;;4995575;28;19917;-77
2023/07/24 13:24:05;;;;;;;;;;;19.00;99.90;;;;;;4996245;28;19921;-76
2023/07/24 13:26:31;;;;;;;;;;;18.80;99.90;;;;;;4995239;28;20277;-76
2023/07/24 13:28:57;;;;;;;;;;;18.80;99.90;;;;;;4994996;28;19917;-77
2023/07/24 13:31:23;;;;;;;;;;;18.90;99.90;;;;;;4996347;28;19918;-76
2023/07/24 13:33:48;;;;;;;;;;;18.90;99.90;;;;;;4994793;28;19918;-77
2023/07/24 13:36:14;;;;;;;;;;;19.10;99.90;;;;;;4995104;28;19968;-77
2023/07/24 13:38:40;;;;;;;;;;;19.20;99.90;;;;;;4996090;28;19928;-78
2023/07/24 13:41:06;;;;;;;;;;;19.30;99.90;;;;;;4995729;28;19925;-76
2023/07/24 13:43:32;;;;;;;;;;;19.50;99.90;;;;;;4994687;28;19917;-78
2023/07/24 13:45:58;;;;;;;;;;;19.70;99.90;;;;;;4995902;28;20356;-75
2023/07/24 13:48:24;;;;;;;;;;;19.80;99.90;;;;;;4994898;28;20290;-76
2023/07/24 13:50:50;;;;;;;;;;;20.00;99.90;;;;;;4994732;28;19939;-77
2023/07/24 13:53:15;;;;;;;;;;;19.90;99.90;;;;;;4995800;28;19921;-76
2023/07/24 13:55:41;;;;;;;;;;;20.00;99.90;;;;;;4995634;28;19917;-76
2023/07/24 13:58:06;;;;;;;;;;;20.00;99.90;;;;;;4978093;28;19963;-76
2023/07/24 14:00:32;;;;;;;;;;;19.70;99.90;;;;;;4995607;28;19965;-75
2023/07/24 14:02:58;;;;;;;;;;;19.70;99.90;;;;;;4994290;28;19928;-76
2023/07/24 14:05:24;;;;;;;;;;;19.60;99.90;;;;;;4994496;28;19969;-76
2023/07/24 14:07:49;;;;;;;;;;;19.60;99.90;;;;;;4995448;28;20362;-77
2023/07/24 14:10:15;;;;;;;;;;;19.50;99.90;;;;;;4994471;28;19928;-76
2023/07/24 14:12:40;;;;;;;;;;;19.50;99.90;;;;;;4995533;28;20332;-76
2023/07/24 14:15:07;;;;;;;;;;;19.50;99.90;;;;;;4978466;28;19922;-76
2023/07/24 14:17:34;;;;;;;;;;;19.40;99.90;;;;;;4977925;28;19917;-75
2023/07/24 14:20:00;;;;;;;;;;;19.40;99.90;;;;;;4993900;28;19922;-76
2023/07/24 14:22:26;;;;;;;;;;;19.40;99.90;;;;;;4993931;28;19917;-76
2023/07/24 14:24:51;;;;;;;;;;;19.40;99.90;;;;;;4995389;28;19968;-76
2023/07/24 14:27:17;;;;;;;;;;;19.40;99.90;;;;;;4993827;28;19949;-75
2023/07/24 14:29:43;;;;;;;;;;;19.40;99.90;;;;;;4992994;28;19918;-75
2023/07/24 14:32:08;;;;;;;;;;;19.40;99.90;;;;;;4994921;28;19952;-76
2023/07/24 14:34:34;;;;;;;;;;;19.40;99.90;;;;;;4995256;28;19924;-76
2023/07/24 14:36:59;;;;;;;;;;;19.40;99.90;;;;;;4994876;28;19917;-75
2023/07/24 14:39:25;;;;;;;;;;;19.50;99.90;;;;;;4993618;28;19933;-76
2023/07/24 14:41:51;;;;;;;;;;;19.60;99.90;;;;;;4995012;28;20277;-77
2023/07/24 14:44:16;;;;;;;;;;;19.80;99.90;;;;;;4994948;28;19918;-75
2023/07/24 14:46:42;;;;;;;;;;;19.90;99.90;;;;;;4994707;28;19968;-76
2023/07/24 14:49:07;;;;;;;;;;;20.00;99.90;;;;;;4977264;28;19941;-75
2023/07/24 14:51:33;;;;;;;;;;;20.10;99.90;;;;;;4993187;28;19924;-76
2023/07/24 14:53:58;;;;;;;;;;;19.80;99.90;;;;;;4977187;28;20009;-75
2023/07/24 14:56:24;;;;;;;;;;;19.90;99.90;;;;;;4993238;28;19917;-75
2023/07/24 14:58:50;;;;;;;;;;;19.90;99.90;;;;;;4994353;28;19922;-75
2023/07/24 15:01:15;;;;;;;;;;;20.00;99.90;;;;;;4994387;28;19944;-75
2023/07/24 15:03:41;;;;;;;;;;;20.00;99.90;;;;;;4993355;28;20389;-76
2023/07/24 15:06:07;;;;;;;;;;;20.10;99.90;;;;;;4994378;28;19918;-75
2023/07/24 15:08:33;;;;;;;;;;;20.10;99.90;;;;;;4993166;28;19917;-76
2023/07/24 15:10:59;;;;;;;;;;;20.20;99.90;;;;;;4994245;28;19918;-75
2023/07/24 15:13:24;;;;;;;;;;;20.00;99.90;;;;;;4994595;28;19924;-76
2023/07/24 15:15:50;;;;;;;;;;;19.80;99.90;;;;;;4993096;28;19971;-75
2023/07/24 15:18:15;;;;;;;;;;;19.80;99.90;;;;;;4994325;28;19929;-76
2023/07/24 15:20:41;;;;;;;;;;;19.60;99.90;;;;;;4994478;28;19925;-75
2023/07/24 15:23:06;;;;;;;;;;;19.50;99.90;;;;;;4993037;28;19917;-75
2023/07/24 15:25:32;;;;;;;;;;;19.40;99.90;;;;;;4993386;28;19918;-76
2023/07/24 15:27:57;;;;;;;;;;;19.30;99.90;;;;;;4994365;28;20369;-76
2023/07/24 15:30:23;;;;;;;;;;;19.30;99.90;;;;;;4992927;28;19926;-75
2023/07/24 15:32:49;;;;;;;;;;;19.40;99.90;;;;;;4993177;28;19917;-75
2023/07/24 15:35:15;;;;;;;;;;;19.40;99.90;;;;;;4994172;28;19928;-76
2023/07/24 15:37:40;;;;;;;;;;;19.30;99.90;;;;;;4992924;28;19924;-75
2023/07/24 15:40:06;;;;;;;;;;;19.40;99.90;;;;;;4996385;28;19944;-76
2023/07/24 15:42:32;;;;;;;;;;;19.40;99.90;;;;;;4997048;28;20381;-76
2023/07/24 15:44:57;;;;;;;;;;;19.50;99.90;;;;;;4998127;28;19917;-77
2023/07/24 15:47:25;;;;;;;;;;;19.50;99.90;;;;;;4996865;28;19940;-77
2023/07/24 15:49:51;;;;;;;;;;;19.40;99.90;;;;;;4996789;28;19917;-76
2023/07/24 15:52:16;;;;;;;;;;;19.30;99.90;;;;;;4996977;28;19918;-75
2023/07/24 15:54:42;;;;;;;;;;;19.20;99.90;;;;;;4997862;28;19925;-75
2023/07/24 15:57:08;;;;;;;;;;;19.10;99.90;;;;;;4996658;28;19918;-77
2023/07/24 15:59:33;;;;;;;;;;;19.00;99.90;;;;;;4996558;28;19996;-75
2023/07/24 16:01:59;;;;;;;;;;;18.70;99.90;;;;;;4996400;28;19925;-76
2023/07/24 16:04:24;;;;;;;;;;;18.60;99.90;;;;;;4996580;28;20037;-75
2023/07/24 16:06:50;;;;;;;;;;;18.40;99.90;;;;;;4980580;28;19918;-77
2023/07/24 16:09:15;;;;;;;;;;;18.30;99.90;;;;;;4997523;28;19923;-76
2023/07/24 16:11:41;;;;;;;;;;;18.20;99.90;;;;;;4997619;28;20393;-75
2023/07/24 16:14:07;;;;;;;;;;;18.00;99.90;;;;;;4996310;28;19924;-74
2023/07/24 16:16:32;;;;;;;;;;;17.90;99.90;;;;;;4996612;28;19918;-75
2023/07/24 16:19:18;;;;;;;;;;;17.90;99.90;;;;;;4997482;28;19929;-74
2023/07/24 16:21:44;;;;;;;;;;;17.80;99.90;;;;;;4997006;28;20008;-76
2023/07/24 16:24:10;;;;;;;;;;;17.80;99.90;;;;;;4996283;28;19918;-76
2023/07/24 16:26:36;;;;;;;;;;;17.70;99.90;;;;;;4996087;28;19918;-75
2023/07/24 16:29:02;;;;;;;;;;;17.70;99.90;;;;;;4980234;28;19964;-76
2023/07/24 16:31:28;;;;;;;;;;;17.70;99.90;;;;;;4996473;28;19929;-76
2023/07/24 16:33:53;;;;;;;;;;;17.60;99.90;;;;;;4996293;28;19993;-77
2023/07/24 16:36:19;;;;;;;;;;;17.70;99.90;;;;;;4997724;28;19918;-77
2023/07/24 16:38:44;;;;;;;;;;;17.60;99.90;;;;;;4996229;28;20002;-75
2023/07/24 16:41:10;;;;;;;;;;;17.60;99.90;;;;;;4997311;28;20000;-76
2023/07/24 16:43:35;;;;;;;;;;;17.60;99.90;;;;;;4997522;28;20019;-76
2023/07/24 16:46:01;;;;;;;;;;;17.50;99.90;;;;;;4995945;28;20016;-77
2023/07/24 16:48:26;;;;;;;;;;;17.50;99.90;;;;;;4997027;28;19957;-76
2023/07/24 16:50:52;;;;;;;;;;;17.50;99.90;;;;;;4995154;28;19965;-77
2023/07/24 16:53:17;;;;;;;;;;;17.50;99.90;;;;;;4996845;28;19924;-75
2023/07/24 16:55:43;;;;;;;;;;;17.50;99.90;;;;;;4995724;28;20073;-76
2023/07/24 16:58:08;;;;;;;;;;;17.50;99.90;;;;;;4995702;28;19917;-75
2023/07/24 17:00:34;;;;;;;;;;;17.50;99.90;;;;;;4995481;28;19921;-77
2023/07/24 17:03:00;;;;;;;;;;;17.50;99.90;;;;;;4995710;28;19917;-77
2023/07/24 17:05:25;;;;;;;;;;;17.40;99.90;;;;;;4995965;28;19953;-76
2023/07/24 17:07:51;;;;;;;;;;;17.40;99.90;;;;;;4995302;28;20396;-76
2023/07/24 17:10:18;;;;;;;;;;;17.50;99.90;;;;;;4995500;28;20273;-76